Terminal Aerodrome Forecast
Issued by NWS Sioux Falls, SD

Home | Current Version | Previous Version | Text Only | Print | Product List | Glossary Off
Versions: 1 2 3 4 5 6 7 8 9 10 11 12 13 14 15 16 17 18 19 20 21 22 23 24 25 26 27 28 29 30 31 32

000
FTUS43 KFSD 170520
TAFSUX
TAF
KSUX 170520Z 1706/1806 13005KT P6SM BKN040
     FM171000 10004KT 5SM BR SCT030
      TEMPO 1711/1713 2SM BR
     FM171400 10005KT P6SM SCT040
     FM180000 09004KT P6SM SCT040=

USA.gov is the U.S. government's official web portal to all federal, state and local government web resources and services.